Time;durP1;ratioP1;P1;durP2;ratioP2;P2;SDS_P1;SDS_P2;PMS_P1;PMS_P2;Temp;Humidity;BMP_temperature;BMP_pressure;BME280_temperature;BME280_humidity;BME280_pressure;Samples;Min_cycle;Max_cycle;Signal;HPM_P1;HPM_P2
2021/04/26 00:00:07;;;;;;;0.70;0.50;;;;;;;19.59;30.76;102221.06;5041557;28;20037;-68
2021/04/26 00:02:32;;;;;;;0.45;0.30;;;;;;;19.59;30.80;102212.09;5042145;28;20035;-68
2021/04/26 00:04:57;;;;;;;0.85;0.40;;;;;;;19.59;30.68;102210.25;5043797;28;20473;-68
2021/04/26 00:07:23;;;;;;;0.70;0.40;;;;;;;19.56;30.29;102205.00;5046419;28;20037;-68
2021/04/26 00:09:48;;;;;;;0.63;0.40;;;;;;;19.51;30.60;102198.91;5042597;28;20062;-68
2021/04/26 00:12:13;;;;;;;0.70;0.40;;;;;;;19.54;30.28;102198.78;5029818;28;20107;-68
2021/04/26 00:14:39;;;;;;;0.65;0.40;;;;;;;19.55;30.32;102200.53;5042893;28;20021;-68
2021/04/26 00:17:04;;;;;;;1.00;0.50;;;;;;;19.51;30.59;102199.78;5041260;28;20062;-68
2021/04/26 00:19:29;;;;;;;0.63;0.40;;;;;;;19.51;30.65;102199.78;5040945;28;20025;-68
2021/04/26 00:21:55;;;;;;;1.08;0.40;;;;;;;19.54;30.60;102196.06;5041515;28;20033;-68
2021/04/26 00:24:20;;;;;;;0.70;0.40;;;;;;;19.53;30.60;102186.22;5037671;28;20041;-68
2021/04/26 00:26:45;;;;;;;0.95;0.43;;;;;;;19.51;30.84;102182.72;5027133;28;20043;-68
2021/04/26 00:29:11;;;;;;;1.40;0.35;;;;;;;19.46;30.66;102173.94;5037286;28;20021;-68
2021/04/26 00:31:36;;;;;;;1.35;0.40;;;;;;;19.49;30.36;102187.28;5041478;28;20465;-68
2021/04/26 00:34:02;;;;;;;0.40;0.40;;;;;;;19.49;30.69;102180.09;5038834;28;20036;-68
2021/04/26 00:36:27;;;;;;;0.52;0.40;;;;;;;19.48;30.61;102172.06;5025947;28;20032;-68
2021/04/26 00:38:53;;;;;;;1.15;0.50;;;;;;;19.44;30.82;102172.16;5044600;28;20023;-68
2021/04/26 00:41:18;;;;;;;1.23;0.45;;;;;;;19.41;30.56;102161.50;5039739;28;20430;-68
2021/04/26 00:43:43;;;;;;;0.85;0.38;;;;;;;19.46;30.90;102160.44;5040937;28;20048;-68
2021/04/26 00:46:11;;;;;;;0.32;0.32;;;;;;;19.44;30.75;102158.66;5027418;28;20033;-68
2021/04/26 00:48:36;;;;;;;0.82;0.40;;;;;;;19.38;30.96;102158.94;5033748;28;20067;-68
2021/04/26 00:51:02;;;;;;;0.80;0.50;;;;;;;19.42;30.62;102157.84;5035889;28;20025;-68
2021/04/26 00:53:27;;;;;;;0.40;0.30;;;;;;;19.40;30.76;102154.34;5032768;28;20032;-68
2021/04/26 00:55:52;;;;;;;0.35;0.30;;;;;;;19.40;30.58;102156.16;5031228;28;20037;-68
2021/04/26 00:58:18;;;;;;;0.85;0.38;;;;;;;19.43;30.77;102158.72;5025291;28;20025;-68
2021/04/26 01:00:43;;;;;;;0.40;0.40;;;;;;;19.36;30.59;102152.72;5040925;28;20067;-71
2021/04/26 01:03:08;;;;;;;0.57;0.32;;;;;;;19.37;30.43;102159.00;5022208;28;20021;-68
2021/04/26 01:05:34;;;;;;;0.57;0.47;;;;;;;19.37;30.43;102154.47;5037729;28;20025;-68
2021/04/26 01:08:00;;;;;;;0.80;0.30;;;;;;;19.37;30.67;102156.31;5039111;23;20546;-77
2021/04/26 01:10:27;;;;;;;1.23;0.50;;;;;;;19.33;30.80;102150.16;5003873;28;20149;-76
2021/04/26 01:13:18;;;;;;;0.30;0.30;;;;;;;19.37;30.70;102153.59;4986477;28;20492;-76
2021/04/26 01:16:05;;;;;;;0.57;0.38;;;;;;;19.34;30.92;102151.91;5034980;28;20202;-77
2021/04/26 01:18:53;;;;;;;0.10;0.10;;;;;;;19.30;30.91;102142.16;5014997;28;20033;-76
2021/04/26 01:21:46;;;;;;;0.30;0.30;;;;;;;19.33;30.60;102136.66;5032621;28;20116;-76
2021/04/26 01:24:48;;;;;;;0.50;0.32;;;;;;;19.33;30.96;102134.81;5027505;28;20043;-76
2021/04/26 01:27:32;;;;;;;0.47;0.30;;;;;;;19.27;30.96;102134.19;5015065;28;20083;-76
2021/04/26 01:29:57;;;;;;;0.60;0.30;;;;;;;19.30;30.67;102123.28;5010500;28;20287;-76
2021/04/26 01:32:26;;;;;;;0.73;0.40;;;;;;;19.28;30.78;102119.75;5016313;28;20068;-76
2021/04/26 01:34:51;;;;;;;0.25;0.20;;;;;;;19.26;30.68;102125.22;5024426;28;20037;-76
2021/04/26 01:37:16;;;;;;;0.35;0.30;;;;;;;19.26;30.92;102129.72;5016115;28;20043;-77
2021/04/26 01:39:42;;;;;;;0.30;0.25;;;;;;;19.25;30.76;102133.38;4991409;28;20017;-76
2021/04/26 01:42:07;;;;;;;0.57;0.30;;;;;;;19.26;31.04;102119.81;5027732;28;20564;-76
2021/04/26 01:44:33;;;;;;;0.85;0.40;;;;;;;19.18;30.80;102128.22;5009209;28;20192;-75
2021/04/26 01:46:58;;;;;;;1.48;0.50;;;;;;;19.21;30.90;102127.22;5006110;28;20396;-77
2021/04/26 01:49:24;;;;;;;0.28;0.22;;;;;;;19.21;31.34;102127.22;4987608;28;20160;-76
2021/04/26 01:51:49;;;;;;;0.40;0.30;;;;;;;19.24;30.53;102127.09;4993211;28;20095;-76
2021/04/26 01:54:15;;;;;;;0.40;0.30;;;;;;;19.19;30.87;102121.03;5020688;28;20026;-77
2021/04/26 01:56:40;;;;;;;0.88;0.30;;;;;;;19.20;30.78;102120.09;4983752;28;20364;-77
2021/04/26 01:59:06;;;;;;;0.73;0.30;;;;;;;19.23;30.70;102119.06;5016652;28;20109;-76
2021/04/26 02:01:31;;;;;;;0.70;0.30;;;;;;;19.18;30.86;102121.97;5017158;28;20109;-76
2021/04/26 02:03:59;;;;;;;1.10;0.40;;;;;;;19.19;30.93;102113.81;5004103;28;20108;-77
2021/04/26 02:06:24;;;;;;;0.70;0.40;;;;;;;19.17;30.61;102112.09;5003171;28;20163;-74
2021/04/26 02:08:50;;;;;;;1.45;0.40;;;;;;;19.14;30.87;102106.84;4987440;28;20441;-77
2021/04/26 02:11:15;;;;;;;0.45;0.30;;;;;;;19.15;30.83;102106.78;5023381;28;20503;-75
2021/04/26 02:13:42;;;;;;;1.17;0.30;;;;;;;19.12;30.86;102111.38;4998341;28;20033;-78
2021/04/26 02:16:07;;;;;;;0.50;0.30;;;;;;;19.09;30.68;102117.78;5034184;28;20479;-76
2021/04/26 02:18:33;;;;;;;0.45;0.30;;;;;;;19.06;30.93;102123.28;5042561;28;20077;-76
2021/04/26 02:20:59;;;;;;;0.73;0.20;;;;;;;19.13;31.04;102122.13;4981442;28;20166;-76
2021/04/26 02:23:24;;;;;;;1.00;0.30;;;;;;;19.11;30.83;102112.34;4999635;28;20128;-75
2021/04/26 02:25:49;;;;;;;0.80;0.40;;;;;;;19.09;30.51;102115.94;5021832;28;20044;-77
2021/04/26 02:28:15;;;;;;;0.22;0.17;;;;;;;19.11;30.91;102115.03;5016119;28;20117;-74
2021/04/26 02:30:40;;;;;;;0.57;0.30;;;;;;;19.08;30.83;102116.03;4993197;28;20117;-78
2021/04/26 02:33:12;;;;;;;0.25;0.20;;;;;;;19.05;30.71;102098.16;5004639;28;20473;-77
2021/04/26 02:35:47;;;;;;;0.60;0.40;;;;;;;19.08;30.81;102100.72;5027999;28;20051;-77
2021/04/26 02:38:23;;;;;;;0.30;0.30;;;;;;;19.05;30.88;102097.28;5003307;28;20923;-76
2021/04/26 02:40:52;;;;;;;0.52;0.28;;;;;;;18.94;30.98;102086.91;4993222;28;20053;-76
2021/04/26 02:43:17;;;;;;;0.75;0.30;;;;;;;18.97;30.78;102078.69;5008200;28;20022;-77
2021/04/26 02:45:50;;;;;;;0.30;0.30;;;;;;;18.94;31.14;102082.38;4998904;28;20032;-78
2021/04/26 02:48:16;;;;;;;0.43;0.20;;;;;;;18.99;31.42;102086.72;5023310;28;20029;-77
2021/04/26 02:50:42;;;;;;;0.20;0.20;;;;;;;19.04;31.05;102091.00;5024127;28;20044;-77
2021/04/26 02:53:07;;;;;;;0.75;0.30;;;;;;;19.02;31.29;102082.09;5037406;28;20142;-76
2021/04/26 02:55:33;;;;;;;1.08;0.35;;;;;;;19.05;31.23;102073.00;5008023;28;20131;-75
2021/04/26 02:57:58;;;;;;;0.55;0.28;;;;;;;19.07;31.78;102079.22;5020374;28;20051;-77
2021/04/26 03:00:23;;;;;;;0.80;0.30;;;;;;;19.05;31.43;102076.59;5004678;28;20124;-78
2021/04/26 03:02:49;;;;;;;0.50;0.30;;;;;;;19.05;31.32;102075.69;5001058;28;20323;-74
2021/04/26 03:05:15;;;;;;;0.30;0.30;;;;;;;19.03;31.31;102072.19;4999313;28;20445;-75
2021/04/26 03:07:41;;;;;;;0.20;0.20;;;;;;;19.02;31.15;102070.44;5028640;28;20465;-77
2021/04/26 03:10:08;;;;;;;0.47;0.28;;;;;;;19.04;31.02;102064.03;4991486;28;20128;-78
2021/04/26 03:12:34;;;;;;;0.30;0.30;;;;;;;19.04;31.06;102065.84;4979356;28;20096;-76
2021/04/26 03:15:04;;;;;;;0.30;0.30;;;;;;;19.04;30.89;102055.06;4985875;28;20426;-76
2021/04/26 03:17:29;;;;;;;0.30;0.30;;;;;;;19.00;31.31;102054.31;5031175;28;20119;-76
2021/04/26 03:19:54;;;;;;;0.47;0.35;;;;;;;19.04;31.29;102057.75;5013356;28;20576;-75
2021/04/26 03:22:20;;;;;;;1.08;0.50;;;;;;;19.03;31.50;102056.91;4982681;28;20056;-74
2021/04/26 03:24:45;;;;;;;0.65;0.30;;;;;;;19.02;31.26;102047.03;4979354;28;20066;-74
2021/04/26 03:27:11;;;;;;;0.10;0.10;;;;;;;19.04;30.83;102042.47;5017850;28;20069;-76
2021/04/26 03:29:36;;;;;;;0.20;0.20;;;;;;;19.01;33.03;102041.72;5024497;28;20633;-75
2021/04/26 03:32:02;;;;;;;0.60;0.30;;;;;;;18.94;31.35;102028.47;4970033;28;20025;-76
2021/04/26 03:34:27;;;;;;;0.30;0.30;;;;;;;19.00;31.18;102038.13;5015636;28;20047;-76
2021/04/26 03:36:52;;;;;;;0.30;0.22;;;;;;;19.01;31.04;102039.91;4976311;28;20350;-75
2021/04/26 03:39:18;;;;;;;0.20;0.20;;;;;;;19.01;31.25;102037.19;5019116;28;20340;-75
2021/04/26 03:41:43;;;;;;;0.30;0.30;;;;;;;19.03;31.31;102037.13;4996659;28;20101;-77
2021/04/26 03:44:16;;;;;;;0.28;0.28;;;;;;;19.03;31.16;102031.75;5030228;28;20516;-75
2021/04/26 03:46:55;;;;;;;0.90;0.35;;;;;;;19.00;33.21;102024.63;5000371;28;20496;-75
2021/04/26 03:49:21;;;;;;;0.20;0.20;;;;;;;19.00;30.88;102023.78;5035400;28;20116;-75
2021/04/26 03:51:47;;;;;;;0.30;0.30;;;;;;;19.01;32.96;102022.84;5037884;28;20124;-74
2021/04/26 03:54:12;;;;;;;0.38;0.28;;;;;;;18.95;31.09;102019.44;5026714;28;20045;-76
2021/04/26 03:56:38;;;;;;;0.63;0.30;;;;;;;18.99;31.93;102024.72;5018409;28;20033;-77
2021/04/26 03:59:03;;;;;;;0.28;0.20;;;;;;;19.00;31.12;102029.19;4986705;28;20148;-76
2021/04/26 04:01:29;;;;;;;0.70;0.38;;;;;;;18.97;30.97;102027.47;5007425;28;20039;-76
2021/04/26 04:03:54;;;;;;;0.32;0.22;;;;;;;18.98;30.81;102023.81;5006872;28;20025;-75
2021/04/26 04:06:20;;;;;;;0.60;0.30;;;;;;;19.01;31.33;102022.84;5013122;28;20025;-77
2021/04/26 04:08:45;;;;;;;0.40;0.25;;;;;;;18.99;32.21;102019.31;4988915;28;20080;-75
2021/04/26 04:11:10;;;;;;;0.35;0.30;;;;;;;18.99;30.98;102020.22;5002287;28;20048;-76
2021/04/26 04:13:36;;;;;;;0.68;0.30;;;;;;;18.97;31.66;102017.56;5018821;28;20609;-76
2021/04/26 04:16:01;;;;;;;0.20;0.20;;;;;;;18.99;31.00;102024.72;4996102;28;20037;-75
2021/04/26 04:18:26;;;;;;;0.20;0.20;;;;;;;18.96;31.22;102014.94;4983779;28;20090;-75
2021/04/26 04:20:52;;;;;;;0.50;0.20;;;;;;;18.97;31.10;102022.09;4974399;28;20510;-75
2021/04/26 04:23:18;;;;;;;0.85;0.45;;;;;;;19.01;31.49;102025.53;4990037;28;20095;-76
2021/04/26 04:25:43;;;;;;;0.25;0.20;;;;;;;19.02;31.02;102024.59;5014214;28;20053;-75
2021/04/26 04:28:08;;;;;;;0.55;0.20;;;;;;;18.97;31.01;102027.47;5017063;28;20077;-76
2021/04/26 04:30:34;;;;;;;0.20;0.20;;;;;;;18.99;30.80;102022.00;5014697;28;20128;-77
2021/04/26 04:32:59;;;;;;;0.88;0.40;;;;;;;18.99;31.00;102024.72;5027674;28;20498;-76
2021/04/26 04:35:24;;;;;;;0.28;0.20;;;;;;;19.02;30.88;102030.00;5002679;28;20029;-77
2021/04/26 04:37:50;;;;;;;0.52;0.28;;;;;;;19.00;30.73;102026.47;4976161;28;20315;-77
2021/04/26 04:40:15;;;;;;;0.28;0.28;;;;;;;19.02;30.93;102025.47;5002720;28;20379;-77
2021/04/26 04:45:47;;;;;;;0.68;0.20;;;;;;;19.08;31.45;102024.34;5077867;27;20416;-54
2021/04/26 04:48:12;;;;;;;1.55;0.40;;;;;;;19.10;31.73;102027.84;5060210;28;20032;-56
2021/04/26 04:50:37;;;;;;;0.47;0.40;;;;;;;19.05;30.99;102024.47;5066678;28;20437;-55
2021/04/26 04:53:03;;;;;;;0.20;0.20;;;;;;;18.99;30.74;102022.91;5060511;28;20055;-56
2021/04/26 04:55:28;;;;;;;0.73;0.40;;;;;;;18.97;31.04;102028.38;5060119;28;20451;-55
2021/04/26 04:57:54;;;;;;;0.73;0.32;;;;;;;18.99;31.10;102022.91;5073321;28;20070;-55
2021/04/26 05:00:19;;;;;;;1.40;0.30;;;;;;;18.94;30.88;102023.06;5065874;28;20098;-56
2021/04/26 05:02:45;;;;;;;0.75;0.30;;;;;;;18.95;30.97;102024.84;5060281;28;20036;-57
2021/04/26 05:05:10;;;;;;;0.73;0.30;;;;;;;18.91;31.01;102016.94;5059593;28;20633;-57
2021/04/26 05:07:36;;;;;;;0.80;0.20;;;;;;;18.86;31.11;102025.22;5060402;28;20028;-57
2021/04/26 05:10:01;;;;;;;0.50;0.40;;;;;;;18.84;31.03;102024.41;5059443;28;20027;-57
2021/04/26 05:12:27;;;;;;;1.27;0.40;;;;;;;18.70;31.94;102031.25;5059836;28;20437;-58
2021/04/26 05:14:52;;;;;;;0.43;0.43;;;;;;;18.45;31.22;102031.28;5058705;28;20086;-57
2021/04/26 05:17:17;;;;;;;0.98;0.40;;;;;;;18.41;30.13;102035.06;5059283;28;20094;-56
2021/04/26 05:19:43;;;;;;;0.40;0.40;;;;;;;18.27;30.40;102035.56;5039357;28;20024;-56
2021/04/26 05:22:08;;;;;;;0.60;0.40;;;;;;;18.08;30.27;102037.09;5057294;28;20024;-56
2021/04/26 05:24:34;;;;;;;1.13;0.50;;;;;;;18.00;30.34;102033.81;5056406;28;20120;-56
2021/04/26 05:27:00;;;;;;;0.50;0.43;;;;;;;18.00;30.06;102029.28;5057314;28;20265;-57
2021/04/26 05:29:25;;;;;;;1.05;0.55;;;;;;;18.04;29.76;102021.13;5057237;28;20069;-56
2021/04/26 05:31:51;;;;;;;0.40;0.32;;;;;;;18.03;29.82;102025.63;5057141;28;20337;-56
2021/04/26 05:34:16;;;;;;;0.43;0.40;;;;;;;17.94;29.49;102024.16;5057683;28;20062;-56
2021/04/26 05:36:42;;;;;;;1.65;0.50;;;;;;;17.81;30.00;102030.91;5041026;28;20107;-56
2021/04/26 05:39:07;;;;;;;0.98;0.50;;;;;;;17.85;29.50;102021.78;5038940;28;20390;-57
2021/04/26 05:41:32;;;;;;;0.73;0.30;;;;;;;17.74;30.49;102024.88;5059948;28;20113;-53
2021/04/26 05:43:58;;;;;;;1.27;0.40;;;;;;;17.69;31.47;102026.84;5059472;28;20020;-56
2021/04/26 05:46:24;;;;;;;1.08;0.40;;;;;;;17.74;31.18;102033.81;5059560;28;20583;-56
2021/04/26 05:48:49;;;;;;;0.30;0.30;;;;;;;17.68;30.60;102030.44;5054940;28;20036;-57
2021/04/26 05:51:15;;;;;;;1.33;0.50;;;;;;;17.76;30.48;102029.25;5063368;28;20093;-57
2021/04/26 05:53:40;;;;;;;1.48;0.40;;;;;;;17.81;29.96;102036.28;5058943;28;20670;-57
2021/04/26 05:56:05;;;;;;;1.38;0.40;;;;;;;17.64;30.97;102038.63;5052185;28;20442;-56
2021/04/26 05:58:31;;;;;;;0.70;0.43;;;;;;;17.90;30.39;102027.88;5046042;28;20025;-56
2021/04/26 06:00:56;;;;;;;1.48;0.40;;;;;;;18.18;30.29;102029.59;5046854;28;20025;-56
2021/04/26 06:03:22;;;;;;;0.70;0.43;;;;;;;18.35;29.77;102025.38;5045372;28;20090;-55
2021/04/26 06:05:47;;;;;;;2.28;0.43;;;;;;;18.48;30.14;102025.81;5027715;28;20070;-55
2021/04/26 06:08:12;;;;;;;1.30;0.30;;;;;;;18.58;30.44;102018.22;5043458;28;20166;-54
2021/04/26 06:10:38;;;;;;;1.52;0.50;;;;;;;18.56;31.79;102020.97;5043989;28;20226;-54
2021/04/26 06:13:03;;;;;;;0.88;0.32;;;;;;;18.59;31.48;102014.59;5045655;28;20036;-56
2021/04/26 06:15:29;;;;;;;1.60;0.63;;;;;;;18.66;32.76;102015.22;5045882;28;20035;-54
2021/04/26 06:18:26;;;;;;;2.03;0.60;;;;;;;18.65;35.33;102013.47;5051269;28;20085;-54
2021/04/26 06:20:53;;;;;;;1.80;0.40;;;;;;;18.56;31.00;102012.00;4992674;28;20164;-54
2021/04/26 06:23:18;;;;;;;2.10;0.50;;;;;;;18.66;33.46;102010.72;5040771;28;20075;-57
2021/04/26 06:25:44;;;;;;;1.65;0.77;;;;;;;18.22;31.30;102019.59;5065435;28;20012;-57
2021/04/26 06:28:10;;;;;;;0.65;0.45;;;;;;;17.99;33.04;102022.16;5065613;28;20112;-55
2021/04/26 06:30:36;;;;;;;1.75;0.63;;;;;;;17.56;31.20;102016.53;5048501;28;20032;-55
2021/04/26 06:33:01;;;;;;;3.58;0.60;;;;;;;17.53;34.63;102009.41;5032809;28;20068;-59
2021/04/26 06:35:27;;;;;;;2.28;0.50;;;;;;;18.00;32.69;102006.91;5027895;28;20029;-57
2021/04/26 06:37:52;;;;;;;2.45;0.88;;;;;;;18.47;31.76;102007.88;5056942;28;20047;-56
2021/04/26 06:40:18;;;;;;;1.38;0.40;;;;;;;18.59;30.46;102006.53;5054099;28;20330;-53
2021/04/26 06:42:43;;;;;;;1.60;0.60;;;;;;;18.73;31.45;102019.44;5040563;28;20033;-56
2021/04/26 06:45:09;;;;;;;1.33;0.50;;;;;;;18.69;31.86;102017.78;5045332;28;20113;-56
2021/04/26 06:47:35;;;;;;;3.35;0.45;;;;;;;18.57;31.44;102017.38;5049750;28;20113;-55
2021/04/26 06:50:00;;;;;;;0.88;0.30;;;;;;;18.62;32.18;102017.16;5011689;28;20032;-54
2021/04/26 06:52:26;;;;;;;1.65;0.68;;;;;;;18.65;29.95;102016.19;5046262;28;20032;-56
2021/04/26 06:54:51;;;;;;;2.67;0.50;;;;;;;18.60;29.96;102010.97;5050155;28;20099;-55
2021/04/26 06:57:16;;;;;;;1.27;0.50;;;;;;;18.66;30.23;102012.53;5043489;28;20035;-55
2021/04/26 06:59:42;;;;;;;1.25;0.50;;;;;;;18.61;29.56;102010.03;5043546;28;20482;-55
2021/04/26 07:02:07;;;;;;;1.75;0.60;;;;;;;18.60;29.56;102003.75;5048927;28;20463;-55
2021/04/26 07:04:33;;;;;;;0.85;0.50;;;;;;;18.59;29.48;102003.81;5046353;28;20023;-55
2021/04/26 07:06:58;;;;;;;0.73;0.50;;;;;;;18.58;30.79;102002.06;5049133;28;20093;-57
2021/04/26 07:09:23;;;;;;;2.50;0.60;;;;;;;18.45;31.16;101988.19;5065666;22;20114;-71
2021/04/26 07:11:49;;;;;;;3.08;0.73;;;;;;;18.59;30.80;101991.22;5025067;28;20349;-71
2021/04/26 07:14:15;;;;;;;3.03;0.60;;;;;;;18.59;31.56;101979.56;5036377;28;20028;-70
2021/04/26 07:16:41;;;;;;;1.38;0.50;;;;;;;18.70;30.58;101977.34;5029856;28;20112;-70
2021/04/26 07:19:06;;;;;;;3.60;0.60;;;;;;;18.75;31.17;101978.94;5029205;28;20137;-69
2021/04/26 07:21:31;;;;;;;3.97;0.60;;;;;;;18.63;35.40;101981.19;5046812;28;20024;-72
2021/04/26 07:23:57;;;;;;;1.77;0.60;;;;;;;18.66;30.54;101981.09;5058313;28;20158;-73
2021/04/26 07:26:22;;;;;;;1.15;0.40;;;;;;;18.66;30.89;101980.19;5063553;28;20031;-72
2021/04/26 07:28:47;;;;;;;1.20;0.60;;;;;;;18.67;30.53;101981.94;5057834;28;20375;-72
2021/04/26 07:31:13;;;;;;;1.45;0.63;;;;;;;18.60;30.06;101992.97;5065429;28;20032;-73
2021/04/26 07:33:38;;;;;;;1.17;0.47;;;;;;;18.59;31.80;101977.72;5049741;28;20119;-73
2021/04/26 07:36:04;;;;;;;1.70;0.57;;;;;;;18.59;30.43;101969.66;5066906;28;20039;-73
2021/04/26 07:38:30;;;;;;;0.90;0.40;;;;;;;18.63;31.29;101974.94;5048559;28;20099;-73
2021/04/26 07:40:55;;;;;;;1.27;0.40;;;;;;;18.67;30.71;101973.84;5063856;28;20024;-73
2021/04/26 07:43:21;;;;;;;1.90;0.45;;;;;;;18.83;30.36;101969.59;5057419;28;20170;-78
2021/04/26 07:45:46;;;;;;;1.63;0.50;;;;;;;18.98;30.75;101972.59;5048784;28;20139;-72
2021/04/26 07:48:12;;;;;;;1.77;0.40;;;;;;;19.03;31.06;101965.22;5063234;28;20040;-71
2021/04/26 07:50:39;;;;;;;0.40;0.35;;;;;;;19.07;31.34;101966.81;5064914;28;20032;-71
2021/04/26 07:53:04;;;;;;;1.58;0.50;;;;;;;19.15;30.78;101977.31;5060003;28;20035;-71
2021/04/26 07:55:30;;;;;;;2.10;0.47;;;;;;;19.18;31.31;101973.63;5065968;28;20024;-71
2021/04/26 07:57:55;;;;;;;1.40;0.52;;;;;;;19.22;31.05;101979.78;5043743;28;20032;-71
2021/04/26 08:00:21;;;;;;;1.15;0.40;;;;;;;19.21;31.08;101976.19;5062869;28;20036;-71
2021/04/26 08:02:46;;;;;;;0.65;0.30;;;;;;;19.25;31.16;101971.53;5038948;28;20604;-71
2021/04/26 08:05:12;;;;;;;0.63;0.40;;;;;;;19.25;31.09;101966.16;5058335;28;20379;-71
2021/04/26 08:07:37;;;;;;;1.02;0.47;;;;;;;19.07;30.00;101990.25;5046521;28;20440;-71
2021/04/26 08:10:03;;;;;;;1.35;0.55;;;;;;;18.79;29.88;101969.81;5042798;28;20039;-71
2021/04/26 08:12:29;;;;;;;3.50;0.68;;;;;;;18.49;31.07;101971.84;5029508;28;20771;-70
2021/04/26 08:14:54;;;;;;;1.70;0.50;;;;;;;18.65;29.83;101963.13;5046425;28;20241;-70
2021/04/26 08:17:20;;;;;;;1.10;0.47;;;;;;;18.83;30.17;101969.59;5044421;28;20060;-69
2021/04/26 08:19:45;;;;;;;0.95;0.50;;;;;;;18.68;29.89;101967.53;5045094;28;20036;-71
2021/04/26 08:22:11;;;;;;;0.80;0.40;;;;;;;18.64;29.81;101969.47;5056834;28;20108;-71
2021/04/26 08:24:36;;;;;;;0.93;0.60;;;;;;;18.51;29.10;101974.47;5029438;28;20654;-71
2021/04/26 08:27:01;;;;;;;2.70;0.68;;;;;;;18.14;29.28;101976.75;5027427;28;20116;-71
2021/04/26 08:29:27;;;;;;;1.17;0.57;;;;;;;17.97;29.72;101970.19;5047373;28;20027;-71
2021/04/26 08:31:52;;;;;;;1.17;0.60;;;;;;;17.86;29.45;101962.50;5045069;28;20036;-71
2021/04/26 08:34:18;;;;;;;0.88;0.55;;;;;;;17.91;29.98;101962.34;5028334;28;20077;-70
2021/04/26 08:36:43;;;;;;;2.33;0.77;;;;;;;17.77;30.55;101966.44;5047405;28;20037;-78
2021/04/26 08:39:09;;;;;;;1.63;0.60;;;;;;;17.65;30.09;101959.66;5063571;28;20073;-79
2021/04/26 08:41:34;;;;;;;1.90;0.60;;;;;;;17.65;30.59;101954.28;5047535;28;20016;-72
2021/04/26 08:44:00;;;;;;;1.60;0.60;;;;;;;17.89;30.09;101948.06;5060166;28;20086;-71
2021/04/26 08:46:25;;;;;;;1.42;0.63;;;;;;;18.12;29.90;101947.19;5065255;28;20040;-71
2021/04/26 08:48:50;;;;;;;2.33;0.60;;;;;;;18.28;29.45;101943.94;5059658;28;20059;-71
2021/04/26 08:51:16;;;;;;;2.35;0.73;;;;;;;18.21;30.96;101945.09;5028626;28;20017;-72
2021/04/26 08:53:41;;;;;;;2.65;0.52;;;;;;;18.14;29.18;101939.06;5064201;28;20036;-72
2021/04/26 08:56:07;;;;;;;1.23;0.60;;;;;;;18.00;28.89;101939.59;5039961;28;20032;-74
2021/04/26 08:58:33;;;;;;;1.77;0.60;;;;;;;18.08;28.16;101939.28;5060695;28;20037;-75
2021/04/26 09:00:58;;;;;;;2.63;0.65;;;;;;;18.05;29.06;101942.97;5045032;28;20100;-71
2021/04/26 09:03:31;;;;;;;3.00;0.60;;;;;;;18.02;28.13;101945.81;5047728;28;20533;-74
2021/04/26 09:05:56;;;;;;;1.40;0.50;;;;;;;18.02;28.40;101946.66;5045335;28;20021;-71
2021/04/26 09:08:23;;;;;;;1.25;0.57;;;;;;;18.07;28.51;101934.84;5065716;28;20504;-71
2021/04/26 09:10:50;;;;;;;2.08;0.60;;;;;;;18.06;28.28;101939.34;5063537;28;20028;-71
2021/04/26 09:13:29;;;;;;;0.50;0.50;;;;;;;18.02;27.90;101941.28;5063722;28;20632;-70
2021/04/26 09:16:02;;;;;;;0.85;0.40;;;;;;;17.88;27.86;101939.13;5062141;28;20020;-71
2021/04/26 09:18:45;;;;;;;0.60;0.50;;;;;;;17.72;27.82;101930.75;5075960;28;20111;-71
2021/04/26 09:21:34;;;;;;;0.75;0.40;;;;;;;17.89;28.17;101935.47;5064867;28;20020;-70
2021/04/26 09:24:18;;;;;;;0.85;0.60;;;;;;;17.94;28.34;101926.34;5054013;28;20477;-71
2021/04/26 09:26:48;;;;;;;0.93;0.55;;;;;;;17.83;27.25;101927.66;5061901;28;20021;-71
2021/04/26 09:29:20;;;;;;;0.50;0.50;;;;;;;17.90;27.28;101930.97;5063203;28;20423;-71
2021/04/26 09:32:03;;;;;;;1.23;0.60;;;;;;;18.00;27.11;101916.22;5051571;28;20032;-70
2021/04/26 09:34:51;;;;;;;0.70;0.45;;;;;;;17.92;26.71;101929.09;5064800;28;20035;-71
2021/04/26 09:37:22;;;;;;;1.17;0.50;;;;;;;17.81;27.12;101916.06;5062812;28;20040;-70
2021/04/26 09:40:14;;;;;;;0.98;0.60;;;;;;;17.79;26.90;101923.31;5050694;28;20028;-71
2021/04/26 09:42:47;;;;;;;0.50;0.40;;;;;;;17.80;26.48;101906.22;5049654;28;20452;-69
2021/04/26 09:45:15;;;;;;;0.52;0.52;;;;;;;17.87;26.78;101914.94;5065455;28;20074;-70
2021/04/26 09:47:40;;;;;;;1.40;0.45;;;;;;;17.90;26.27;101899.56;5067610;28;20032;-71
2021/04/26 09:50:06;;;;;;;0.98;0.60;;;;;;;17.92;26.19;101901.31;5051309;28;20024;-70
2021/04/26 09:52:31;;;;;;;1.13;0.60;;;;;;;17.89;25.92;101902.31;5068832;28;20052;-71
2021/04/26 09:54:57;;;;;;;0.52;0.40;;;;;;;17.93;26.23;101895.00;5048281;28;20017;-70
2021/04/26 09:57:22;;;;;;;1.05;0.63;;;;;;;18.10;26.32;101900.59;5047645;28;20025;-70
2021/04/26 09:59:49;;;;;;;2.50;0.50;;;;;;;18.07;26.20;101892.66;5034122;28;20043;-70
2021/04/26 10:02:14;;;;;;;0.80;0.60;;;;;;;18.06;26.33;101890.88;5049782;28;20025;-69
2021/04/26 10:04:39;;;;;;;1.27;0.40;;;;;;;17.96;26.18;101884.13;5062629;28;20037;-70
2021/04/26 10:07:05;;;;;;;0.98;0.60;;;;;;;18.11;26.05;101875.44;5046503;28;20037;-70
2021/04/26 10:09:30;;;;;;;0.55;0.50;;;;;;;17.82;26.49;101872.06;5050194;28;20494;-70
2021/04/26 10:11:56;;;;;;;1.90;0.60;;;;;;;17.80;26.15;101862.28;5030047;28;20025;-70
2021/04/26 10:14:21;;;;;;;1.83;0.60;;;;;;;17.93;26.31;101868.09;5025530;28;20044;-70
2021/04/26 10:16:58;;;;;;;0.50;0.50;;;;;;;18.05;26.56;101864.91;5042952;28;20067;-70
2021/04/26 10:19:31;;;;;;;0.98;0.52;;;;;;;18.13;26.04;101846.63;5049956;28;20394;-70
2021/04/26 10:21:57;;;;;;;1.27;0.60;;;;;;;18.03;26.08;101829.09;5048401;28;20082;-70
2021/04/26 10:24:24;;;;;;;1.05;0.50;;;;;;;18.11;25.78;101844.94;5045872;28;20037;-70
2021/04/26 10:26:54;;;;;;;1.15;0.60;;;;;;;18.08;25.84;101839.66;5063376;28;20024;-70
2021/04/26 10:29:29;;;;;;;0.90;0.68;;;;;;;18.10;25.52;101853.94;5050540;28;20135;-70
2021/04/26 10:32:00;;;;;;;0.47;0.38;;;;;;;18.24;25.90;101845.38;5068869;28;20051;-70
2021/04/26 10:34:36;;;;;;;1.00;0.70;;;;;;;18.33;25.96;101836.91;5065743;28;20624;-70
2021/04/26 10:37:05;;;;;;;2.13;0.77;;;;;;;18.37;26.28;101845.75;5047446;28;20017;-70
2021/04/26 10:39:32;;;;;;;1.02;0.57;;;;;;;18.39;25.53;101830.38;5041825;28;20024;-69
2021/04/26 10:41:59;;;;;;;0.90;0.50;;;;;;;18.42;25.70;101824.88;5042863;28;20056;-70
2021/04/26 10:44:37;;;;;;;1.13;0.38;;;;;;;18.55;25.61;101822.53;5062019;28;20474;-70
2021/04/26 10:47:26;;;;;;;2.05;0.60;;;;;;;18.56;25.58;101826.09;5058758;28;20032;-70
2021/04/26 10:50:01;;;;;;;2.65;0.60;;;;;;;18.41;25.88;101806.94;5063275;28;20052;-71
2021/04/26 10:52:26;;;;;;;1.48;0.70;;;;;;;18.54;25.81;101810.00;5067539;28;20024;-70
2021/04/26 10:55:00;;;;;;;1.23;0.60;;;;;;;18.68;25.49;101803.16;5066959;28;20113;-71
2021/04/26 10:57:49;;;;;;;2.78;0.80;;;;;;;18.66;25.67;101802.34;5063625;28;20390;-70
2021/04/26 11:00:21;;;;;;;2.85;0.68;;;;;;;18.73;25.69;101802.03;5050673;28;20889;-71
2021/04/26 11:02:53;;;;;;;3.70;0.60;;;;;;;18.78;25.66;101795.56;5065175;28;20040;-70
2021/04/26 11:05:23;;;;;;;2.45;0.70;;;;;;;18.88;25.71;101799.59;5065083;28;20389;-73
2021/04/26 11:07:53;;;;;;;2.00;0.70;;;;;;;18.93;25.64;101789.47;5060365;28;20443;-71
2021/04/26 11:10:40;;;;;;;0.57;0.55;;;;;;;18.80;25.39;101790.94;5049027;28;20391;-70
2021/04/26 11:13:31;;;;;;;2.17;0.70;;;;;;;18.75;25.45;101784.88;5050868;28;20023;-70
2021/04/26 11:16:18;;;;;;;0.82;0.60;;;;;;;18.82;25.55;101775.59;5063982;28;20078;-71
2021/04/26 11:18:59;;;;;;;0.52;0.52;;;;;;;18.72;25.67;101780.53;5067211;28;20557;-71
2021/04/26 11:21:43;;;;;;;0.68;0.60;;;;;;;18.49;25.06;101783.28;5068335;28;20073;-71
2021/04/26 11:24:38;;;;;;;3.33;0.70;;;;;;;18.61;24.79;101772.91;5061452;28;20029;-71
2021/04/26 11:27:10;;;;;;;1.95;0.57;;;;;;;18.70;25.59;101775.22;5047755;28;20040;-71
2021/04/26 11:29:41;;;;;;;1.83;0.70;;;;;;;18.89;25.37;101771.69;5062186;28;20028;-71